createdAt,value
2019-03-06T00:00:41.681Z,84.49
2019-03-06T00:03:46.370Z,84.78
2019-03-06T00:06:51.100Z,85.26
2019-03-06T00:09:55.832Z,85.32
2019-03-06T00:13:00.977Z,85.48
2019-03-06T00:16:05.705Z,85.45
2019-03-06T00:19:10.433Z,84.26
2019-03-06T00:22:15.164Z,84.61
2019-03-06T00:25:19.899Z,84.83
2019-03-06T00:28:24.633Z,85.43
2019-03-06T00:31:29.365Z,85.30
2019-03-06T00:34:33.800Z,85.22
2019-03-06T00:37:38.507Z,84.69
2019-03-06T00:40:45.907Z,84.95
2019-03-06T00:43:50.644Z,85.03
2019-03-06T00:46:55.371Z,85.49
2019-03-06T00:50:00.183Z,86.41
2019-03-06T00:53:05.034Z,86.46
2019-03-06T00:56:09.764Z,85.20
2019-03-06T00:59:14.573Z,84.94
2019-03-06T01:02:19.012Z,85.08
2019-03-06T01:05:24.488Z,85.09
2019-03-06T01:08:29.402Z,84.73
2019-03-06T01:11:34.235Z,85.08
2019-03-06T01:14:38.898Z,85.07
2019-03-06T01:17:43.563Z,84.55
2019-03-06T01:20:48.227Z,84.04
2019-03-06T01:23:52.711Z,83.29
2019-03-06T01:26:57.389Z,83.13
2019-03-06T01:30:01.820Z,83.44
2019-03-06T01:33:09.302Z,83.27
2019-03-06T01:36:15.612Z,80.51
2019-03-06T01:39:25.022Z,80.65
2019-03-06T01:42:32.187Z,79.35
2019-03-06T01:45:36.926Z,80.66
2019-03-06T01:48:41.655Z,80.80
2019-03-06T01:51:46.392Z,81.09
2019-03-06T01:54:51.122Z,82.20
2019-03-06T01:57:55.848Z,82.70
2019-03-06T02:01:00.582Z,82.95
2019-03-06T02:04:05.018Z,84.66
2019-03-06T02:07:09.890Z,82.90
2019-03-06T02:10:16.084Z,82.91
2019-03-06T02:13:24.684Z,84.59
2019-03-06T02:16:29.350Z,83.75
2019-03-06T02:19:33.853Z,83.08
2019-03-06T02:22:38.297Z,83.80
2019-03-06T02:25:43.134Z,83.77
2019-03-06T02:28:47.570Z,83.81
2019-03-06T02:31:52.292Z,83.25
2019-03-06T02:34:57.014Z,84.93
2019-03-06T02:38:01.457Z,85.63
2019-03-06T02:41:06.177Z,85.73
2019-03-06T02:44:11.000Z,83.70
2019-03-06T02:47:15.848Z,82.02
2019-03-06T02:50:20.919Z,81.54
2019-03-06T02:53:25.731Z,83.18
2019-03-06T02:56:30.548Z,82.52
2019-03-06T02:59:45.622Z,80.30
2019-03-06T03:02:51.705Z,79.63
2019-03-06T03:05:58.592Z,80.56
2019-03-06T03:09:03.708Z,79.97
2019-03-06T03:12:08.545Z,81.04
2019-03-06T03:15:13.116Z,81.38
2019-03-06T03:18:17.906Z,81.45
2019-03-06T03:21:22.343Z,80.57
2019-03-06T03:24:27.049Z,80.98
2019-03-06T03:27:31.783Z,80.21
2019-03-06T03:30:36.591Z,80.46
2019-03-06T03:33:41.347Z,80.62
2019-03-06T03:36:45.770Z,80.05
2019-03-06T03:39:50.209Z,80.36
2019-03-06T03:42:54.818Z,80.63
2019-03-06T03:45:59.554Z,80.78
2019-03-06T03:49:04.278Z,79.16
2019-03-06T03:52:09.319Z,80.11
2019-03-06T03:55:19.923Z,80.33
2019-03-06T03:58:24.370Z,80.71
2019-03-06T04:01:28.805Z,80.91
2019-03-06T04:04:33.570Z,80.60
2019-03-06T04:07:38.306Z,80.95
2019-03-06T04:10:42.750Z,81.01
2019-03-06T04:13:47.180Z,81.66
2019-03-06T04:16:51.613Z,81.79
2019-03-06T04:19:56.096Z,81.76
2019-03-06T04:23:00.921Z,81.69
2019-03-06T04:26:05.369Z,81.30
2019-03-06T04:29:09.800Z,81.89
2019-03-06T04:32:14.510Z,80.80
2019-03-06T04:35:18.944Z,81.01
2019-03-06T04:38:23.372Z,80.78
2019-03-06T04:41:27.814Z,81.11
2019-03-06T04:44:32.606Z,80.16
2019-03-06T04:47:37.747Z,84.05
2019-03-06T04:50:42.475Z,84.02
2019-03-06T04:53:47.206Z,82.66
2019-03-06T04:56:51.641Z,80.77
2019-03-06T04:59:56.363Z,80.78
2019-03-06T05:03:00.787Z,81.20
2019-03-06T05:06:05.520Z,81.33
2019-03-06T05:09:10.228Z,80.86
2019-03-06T05:12:14.673Z,81.13
2019-03-06T05:15:20.123Z,81.56
2019-03-06T05:18:26.188Z,81.49
2019-03-06T05:21:30.910Z,80.96
2019-03-06T05:24:35.338Z,80.78
2019-03-06T05:27:39.788Z,80.53
2019-03-06T05:30:44.487Z,81.01
2019-03-06T05:33:48.917Z,80.80
2019-03-06T05:37:24.168Z,80.29
2019-03-06T05:40:28.596Z,81.00
2019-03-06T05:43:33.021Z,80.89
2019-03-06T05:46:37.736Z,80.58
2019-03-06T05:49:42.164Z,80.64
2019-03-06T05:52:46.602Z,80.98
2019-03-06T05:55:51.421Z,80.71
2019-03-06T05:58:55.835Z,80.59
2019-03-06T06:02:00.576Z,79.93
2019-03-06T06:05:11.023Z,80.32
2019-03-06T06:08:15.456Z,80.10
2019-03-06T06:11:20.132Z,79.36
2019-03-06T06:14:24.815Z,79.80
2019-03-06T06:17:29.553Z,80.56
2019-03-06T06:20:34.285Z,80.29
2019-03-06T06:23:40.505Z,79.69
2019-03-06T06:26:45.178Z,79.25
2019-03-06T06:29:49.908Z,78.64
2019-03-06T06:32:54.333Z,75.07
2019-03-06T06:35:59.177Z,70.37
2019-03-06T06:39:05.122Z,66.09
2019-03-06T06:42:09.857Z,62.16
2019-03-06T06:45:20.147Z,58.91
2019-03-06T06:48:28.816Z,59.64
2019-03-06T06:51:48.910Z,58.32
2019-03-06T06:55:14.757Z,58.64
2019-03-06T06:58:32.786Z,58.59
2019-03-06T07:02:13.068Z,58.40
2019-03-06T07:05:22.425Z,56.90
2019-03-06T07:08:28.773Z,55.12
2019-03-06T07:11:40.621Z,54.26
2019-03-06T07:14:55.794Z,55.27
2019-03-06T07:18:05.790Z,57.83
2019-03-06T07:21:11.868Z,61.51
2019-03-06T07:24:36.041Z,64.25
2019-03-06T07:27:42.119Z,65.86
2019-03-06T07:30:53.634Z,67.00
2019-03-06T07:34:11.385Z,67.90
2019-03-06T07:37:17.484Z,68.28
2019-03-06T07:40:23.465Z,68.13
2019-03-06T07:43:35.930Z,69.35
2019-03-06T07:46:53.983Z,69.93
2019-03-06T07:50:02.783Z,71.72
2019-03-06T07:53:46.890Z,72.62
2019-03-06T07:56:55.614Z,72.08
2019-03-06T08:00:00.068Z,73.56
2019-03-06T08:03:07.186Z,73.28
2019-03-06T08:06:11.615Z,72.88
2019-03-06T08:09:20.965Z,73.01
2019-03-06T08:12:25.156Z,73.82
2019-03-06T08:15:47.251Z,72.09
2019-03-06T08:18:56.074Z,72.37
2019-03-06T08:22:02.085Z,72.79
2019-03-06T08:25:26.190Z,72.79
2019-03-06T08:28:30.643Z,73.60
2019-03-06T08:31:39.521Z,73.70
2019-03-06T08:34:44.204Z,72.80
2019-03-06T08:37:48.627Z,71.52
2019-03-06T08:40:53.072Z,71.89
2019-03-06T08:43:57.509Z,64.86
2019-03-06T08:47:12.341Z,66.90
2019-03-06T08:50:22.701Z,62.28
2019-03-06T08:53:29.074Z,59.16
2019-03-06T08:56:45.378Z,59.79
2019-03-06T08:59:54.101Z,60.45
2019-03-06T09:03:21.354Z,60.80
2019-03-06T09:06:33.669Z,58.27
2019-03-06T09:09:38.191Z,58.95
2019-03-06T09:12:44.264Z,59.04
2019-03-06T09:15:59.247Z,57.82
2019-03-06T09:19:21.147Z,56.81
2019-03-06T09:22:28.773Z,58.72
2019-03-06T09:25:46.972Z,56.70
2019-03-06T09:29:09.240Z,55.88
2019-03-06T09:32:15.315Z,56.11
2019-03-06T09:35:37.458Z,54.83
2019-03-06T09:38:44.320Z,54.76
2019-03-06T09:41:53.114Z,53.85
2019-03-06T09:45:05.773Z,52.30
2019-03-06T09:48:12.783Z,52.89
2019-03-06T09:51:24.666Z,51.80
2019-03-06T09:54:46.905Z,50.01
2019-03-06T09:57:55.661Z,49.26
2019-03-06T10:01:04.758Z,50.52
2019-03-06T10:04:15.248Z,50.35
2019-03-06T10:07:21.335Z,53.02
2019-03-06T10:10:27.423Z,51.88
2019-03-06T10:13:42.235Z,53.01
2019-03-06T10:16:49.017Z,52.99
2019-03-06T10:20:00.323Z,52.92
2019-03-06T10:23:04.883Z,54.19
2019-03-06T10:26:09.332Z,53.82
2019-03-06T10:29:14.053Z,54.31
2019-03-06T10:32:18.780Z,53.62
2019-03-06T10:35:23.227Z,52.52
2019-03-06T10:38:27.840Z,54.05
2019-03-06T10:41:32.285Z,54.34
2019-03-06T10:44:37.006Z,54.94
2019-03-06T10:47:41.430Z,55.92
2019-03-06T10:50:45.880Z,56.26
2019-03-06T10:53:50.313Z,54.40
2019-03-06T10:56:55.299Z,55.86
2019-03-06T10:59:59.738Z,55.59
2019-03-06T11:03:05.168Z,53.60
2019-03-06T11:06:10.006Z,53.75
2019-03-06T11:09:14.574Z,54.06
2019-03-06T11:12:19.014Z,54.29
2019-03-06T11:15:23.614Z,56.15
2019-03-06T11:18:28.673Z,53.75
2019-03-06T11:21:34.164Z,53.42
2019-03-06T11:24:38.604Z,53.29
2019-03-06T11:27:43.047Z,53.59
2019-03-06T11:30:56.778Z,53.01
2019-03-06T11:34:01.220Z,52.48
2019-03-06T11:37:06.138Z,52.69
2019-03-06T11:40:16.581Z,50.52
2019-03-06T11:43:21.373Z,50.37
2019-03-06T11:46:27.598Z,49.06
2019-03-06T11:49:32.212Z,49.54
2019-03-06T11:52:36.938Z,48.01
2019-03-06T11:55:41.549Z,47.08
2019-03-06T11:58:46.524Z,45.56
2019-03-06T12:01:51.042Z,44.55
2019-03-06T12:04:55.478Z,44.37
2019-03-06T12:07:59.988Z,44.25
2019-03-06T12:11:04.502Z,44.94
2019-03-06T12:14:09.017Z,43.62
2019-03-06T12:17:13.531Z,46.25
2019-03-06T12:20:17.976Z,42.47
2019-03-06T12:23:22.475Z,43.29
2019-03-06T12:26:26.917Z,43.23
2019-03-06T12:29:31.599Z,40.15
2019-03-06T12:32:36.388Z,40.44
2019-03-06T12:35:40.826Z,42.00
2019-03-06T12:38:45.271Z,40.75
2019-03-06T12:41:49.993Z,37.71
2019-03-06T12:44:54.428Z,38.07
2019-03-06T12:48:06.368Z,36.75
2019-03-06T12:51:10.802Z,35.79
2019-03-06T12:54:15.249Z,34.45
2019-03-06T12:57:19.697Z,33.89
2019-03-06T13:00:26.610Z,34.53
2019-03-06T13:03:31.236Z,32.63
2019-03-06T13:06:35.667Z,30.40
2019-03-06T13:09:40.107Z,31.39
2019-03-06T13:12:45.264Z,32.59
2019-03-06T13:15:49.704Z,31.08
2019-03-06T13:18:54.144Z,31.14
2019-03-06T13:21:58.587Z,30.24
2019-03-06T13:25:03.031Z,30.00
2019-03-06T13:28:07.995Z,29.10
2019-03-06T13:31:12.428Z,29.68
2019-03-06T13:34:18.788Z,30.19
2019-03-06T13:37:23.226Z,30.12
2019-03-06T13:40:27.674Z,30.56
2019-03-06T13:43:32.113Z,29.44
2019-03-06T13:46:36.613Z,27.97
2019-03-06T13:49:41.052Z,25.95
2019-03-06T13:52:45.564Z,24.60
2019-03-06T13:55:50.003Z,25.76
2019-03-06T13:58:54.799Z,26.44
2019-03-06T14:01:59.567Z,25.50
2019-03-06T14:05:06.081Z,26.93
2019-03-06T14:08:10.827Z,26.42
2019-03-06T14:11:15.337Z,27.56
2019-03-06T14:14:20.081Z,28.17
2019-03-06T14:17:24.813Z,28.97
2019-03-06T14:20:29.260Z,29.10
2019-03-06T14:23:35.271Z,29.85
2019-03-06T14:26:39.993Z,29.86
2019-03-06T14:29:44.437Z,30.73
2019-03-06T14:32:49.798Z,32.14
2019-03-06T14:35:54.529Z,31.92
2019-03-06T14:38:59.261Z,30.48
2019-03-06T14:42:04.394Z,31.36
2019-03-06T14:45:13.637Z,30.85
2019-03-06T14:48:18.469Z,31.57
2019-03-06T14:51:22.909Z,32.07
2019-03-06T14:54:27.624Z,32.58
2019-03-06T14:57:32.602Z,33.43
2019-03-06T15:00:37.097Z,35.38
2019-03-06T15:03:41.540Z,34.11
2019-03-06T15:06:46.348Z,34.56
2019-03-06T15:09:51.070Z,34.28
2019-03-06T15:12:55.603Z,34.16
2019-03-06T15:16:00.438Z,34.53
2019-03-06T15:19:04.947Z,35.47
2019-03-06T15:22:09.390Z,34.95
2019-03-06T15:25:23.848Z,35.30
2019-03-06T15:28:28.571Z,35.19
2019-03-06T15:31:33.310Z,34.86
2019-03-06T15:34:37.743Z,34.60
2019-03-06T15:37:42.177Z,35.29
2019-03-06T15:40:46.613Z,35.89
2019-03-06T15:43:51.308Z,35.02
2019-03-06T15:46:56.033Z,35.41
2019-03-06T15:50:00.868Z,36.02
2019-03-06T15:53:05.846Z,36.27
2019-03-06T15:56:10.357Z,35.11
2019-03-06T15:59:15.329Z,35.53
2019-03-06T16:02:19.785Z,36.20
2019-03-06T16:05:24.226Z,36.88
2019-03-06T16:08:29.659Z,39.07
2019-03-06T16:11:34.396Z,38.50
2019-03-06T16:14:39.125Z,38.46
2019-03-06T16:17:43.562Z,38.06
2019-03-06T16:20:48.004Z,37.88
2019-03-06T16:23:52.442Z,39.03
2019-03-06T16:26:57.242Z,39.67
2019-03-06T16:30:01.955Z,38.48
2019-03-06T16:33:06.835Z,38.15
2019-03-06T16:36:11.287Z,38.86
2019-03-06T16:39:16.049Z,39.06
2019-03-06T16:42:20.777Z,38.53
2019-03-06T16:45:29.942Z,38.66
2019-03-06T16:48:34.379Z,39.74
2019-03-06T16:51:38.818Z,39.89
2019-03-06T16:54:43.258Z,41.06
2019-03-06T16:57:48.235Z,41.32
2019-03-06T17:00:55.619Z,43.46
2019-03-06T17:04:00.149Z,45.30
2019-03-06T17:07:05.186Z,43.34
2019-03-06T17:10:10.012Z,45.36
2019-03-06T17:13:14.443Z,45.17
2019-03-06T17:16:18.951Z,42.96
2019-03-06T17:19:23.455Z,43.43
2019-03-06T17:22:28.219Z,42.36
2019-03-06T17:25:33.670Z,43.74
2019-03-06T17:28:38.103Z,43.74
2019-03-06T17:31:43.488Z,43.32
2019-03-06T17:34:47.967Z,45.34
2019-03-06T17:37:52.793Z,45.35
2019-03-06T17:40:57.236Z,47.35
2019-03-06T17:44:01.955Z,48.67
2019-03-06T17:47:06.397Z,43.79
2019-03-06T17:50:12.741Z,45.90
2019-03-06T17:53:17.180Z,48.38
2019-03-06T17:56:21.916Z,43.12
2019-03-06T17:59:26.727Z,41.41
2019-03-06T18:02:31.559Z,41.37
2019-03-06T18:05:36.413Z,41.45
2019-03-06T18:08:40.841Z,40.66
2019-03-06T18:11:45.350Z,41.20
2019-03-06T18:14:50.079Z,40.92
2019-03-06T18:17:54.515Z,40.41
2019-03-06T18:20:58.977Z,40.51
2019-03-06T18:24:03.855Z,40.86
2019-03-06T18:27:08.690Z,40.96
2019-03-06T18:30:18.735Z,41.62
2019-03-06T18:33:23.181Z,41.46
2019-03-06T18:36:27.695Z,42.06
2019-03-06T18:39:32.425Z,42.25
2019-03-06T18:42:37.155Z,42.23
2019-03-06T18:45:41.758Z,43.01
2019-03-06T18:48:46.247Z,43.10
2019-03-06T18:51:50.686Z,43.22
2019-03-06T18:54:55.124Z,44.12
2019-03-06T18:57:59.918Z,44.66
2019-03-06T19:01:05.030Z,45.47
2019-03-06T19:04:09.756Z,45.23
2019-03-06T19:07:14.198Z,45.89
2019-03-06T19:10:20.667Z,45.42
2019-03-06T19:13:25.278Z,44.17
2019-03-06T19:16:30.935Z,44.33
2019-03-06T19:19:35.666Z,43.51
2019-03-06T19:22:40.932Z,43.57
2019-03-06T19:25:45.367Z,42.64
2019-03-06T19:28:49.812Z,42.16
2019-03-06T19:31:54.261Z,42.11
2019-03-06T19:34:59.322Z,42.50
2019-03-06T19:38:04.152Z,41.79
2019-03-06T19:41:08.887Z,41.76
2019-03-06T19:44:13.612Z,41.41
2019-03-06T19:47:18.350Z,42.11
2019-03-06T19:50:26.242Z,41.43
2019-03-06T19:53:31.186Z,41.56
2019-03-06T19:56:35.629Z,41.31
2019-03-06T19:59:40.336Z,41.16
2019-03-06T20:02:45.067Z,40.96
2019-03-06T20:05:49.506Z,40.42
2019-03-06T20:08:54.230Z,41.12
2019-03-06T20:11:58.959Z,40.80
2019-03-06T20:15:03.772Z,40.66
2019-03-06T20:18:08.218Z,40.50
2019-03-06T20:21:12.938Z,40.83
2019-03-06T20:24:17.376Z,39.87
2019-03-06T20:27:21.819Z,40.60
2019-03-06T20:30:27.769Z,40.48
2019-03-06T20:33:34.104Z,40.00
2019-03-06T20:36:39.053Z,40.87
2019-03-06T20:39:43.775Z,41.68
2019-03-06T20:42:48.924Z,41.83
2019-03-06T20:45:53.362Z,41.70
2019-03-06T20:48:57.886Z,42.68
2019-03-06T20:52:02.318Z,43.13
2019-03-06T20:55:10.411Z,43.60
2019-03-06T20:58:14.846Z,46.42
2019-03-06T21:01:19.289Z,46.92
2019-03-06T21:04:23.990Z,46.09
2019-03-06T21:07:28.814Z,48.51
2019-03-06T21:10:33.247Z,49.92
2019-03-06T21:13:37.975Z,51.02
2019-03-06T21:16:42.699Z,52.24
2019-03-06T21:19:47.433Z,53.97
2019-03-06T21:22:52.273Z,53.54
2019-03-06T21:25:57.003Z,53.21
2019-03-06T21:29:01.438Z,53.89
2019-03-06T21:32:06.152Z,54.18
2019-03-06T21:35:10.982Z,54.48
2019-03-06T21:38:15.428Z,54.85
2019-03-06T21:41:19.862Z,54.97
2019-03-06T21:44:24.315Z,55.12
2019-03-06T21:47:28.817Z,53.70
2019-03-06T21:50:33.524Z,55.35
2019-03-06T21:53:39.190Z,54.76
2019-03-06T21:56:44.003Z,55.65
2019-03-06T21:59:48.830Z,55.87
2019-03-06T22:02:53.988Z,54.45
2019-03-06T22:05:58.411Z,54.92
2019-03-06T22:09:02.924Z,53.92
2019-03-06T22:12:07.643Z,54.86
2019-03-06T22:15:22.938Z,54.28
2019-03-06T22:18:27.661Z,55.83
2019-03-06T22:21:32.110Z,57.33
2019-03-06T22:24:36.560Z,56.06
2019-03-06T22:27:40.993Z,56.92
2019-03-06T22:30:45.443Z,58.43
2019-03-06T22:33:50.187Z,58.97
2019-03-06T22:36:54.923Z,59.11
2019-03-06T22:39:59.361Z,59.10
2019-03-06T22:43:04.080Z,58.57
2019-03-06T22:46:08.803Z,58.46
2019-03-06T22:49:13.532Z,58.63
2019-03-06T22:52:18.265Z,59.50
2019-03-06T22:55:22.775Z,59.45
2019-03-06T22:58:27.520Z,57.49
2019-03-06T23:01:32.799Z,58.53
2019-03-06T23:04:37.496Z,58.17
2019-03-06T23:07:42.227Z,58.45
2019-03-06T23:10:47.564Z,58.77
2019-03-06T23:13:52.307Z,59.36
2019-03-06T23:16:57.034Z,59.48
2019-03-06T23:20:01.487Z,59.77
2019-03-06T23:23:06.498Z,59.83
2019-03-06T23:26:11.222Z,60.40
2019-03-06T23:29:15.659Z,60.33
2019-03-06T23:32:20.383Z,60.80
2019-03-06T23:35:24.820Z,60.44
2019-03-06T23:38:29.247Z,60.51
2019-03-06T23:41:33.952Z,59.46
2019-03-06T23:44:38.378Z,59.96
2019-03-06T23:47:43.112Z,60.08
2019-03-06T23:50:47.546Z,60.68
2019-03-06T23:53:52.739Z,60.78
2019-03-06T23:56:57.247Z,61.63
